Richland Springs, Texas
Current Conditions -  °F | °C
As of 9:55 AM on Wednesday 26 Nov 2014 (Local Time) from KBBD Reporting Station
Clear Clear  
Wind Chill: 14°   Ceiling: Unl
Heat Index: 14°   Visibility: 10mi
Dew Point: -4°   Wind: 14mph
Humidity: 29%   Direction: 270°W
Pressure: 30.2"   Gusts: NA
Location:  31.27°N, 98.95°W
Report Text: KBBD 261555Z AUTO 27012KT 10SM CLR 14/M04 A3020 RMK
Loading
Personal Weather Stations






























Interactive Weather Map New forecast layout! Learn more

10-Day Weather Forecast

Advertisements
Track Severe Weather on mobile